createdAt,value
2023-07-04T00:01:26.268Z,17.16
2023-07-04T00:03:57.059Z,17.11
2023-07-04T00:06:29.319Z,17.07
2023-07-04T00:08:57.342Z,17.11
2023-07-04T00:11:25.116Z,17.12
2023-07-04T00:13:52.953Z,17.15
2023-07-04T00:16:21.512Z,17.09
2023-07-04T00:18:50.216Z,17.10
2023-07-04T00:21:18.638Z,17.11
2023-07-04T00:23:53.701Z,17.05
2023-07-04T00:26:24.736Z,17.04
2023-07-04T00:28:52.564Z,17.02
2023-07-04T00:31:24.971Z,16.97
2023-07-04T00:33:54.431Z,16.95
2023-07-04T00:36:22.530Z,16.93
2023-07-04T00:38:57.642Z,16.89
2023-07-04T00:41:30.087Z,16.90
2023-07-04T00:44:15.046Z,16.90
2023-07-04T00:46:54.800Z,16.92
2023-07-04T00:49:39.088Z,16.89
2023-07-04T00:52:24.954Z,16.88
2023-07-04T00:54:58.732Z,16.88
2023-07-04T00:57:32.793Z,16.87
2023-07-04T01:00:13.978Z,16.81
2023-07-04T01:02:42.014Z,16.74
2023-07-04T01:05:11.643Z,16.77
2023-07-04T01:08:02.959Z,16.79
2023-07-04T01:10:38.280Z,16.78
2023-07-04T01:13:07.599Z,16.77
2023-07-04T01:15:35.219Z,16.75
2023-07-04T01:18:04.120Z,16.75
2023-07-04T01:20:33.629Z,16.82
2023-07-04T01:23:24.439Z,16.81
2023-07-04T01:26:34.512Z,16.82
2023-07-04T01:29:04.969Z,16.84
2023-07-04T01:31:36.335Z,16.76
2023-07-04T01:34:05.964Z,16.77
2023-07-04T01:36:40.093Z,16.74
2023-07-04T01:39:16.298Z,16.82
2023-07-04T01:41:48.886Z,16.80
2023-07-04T01:44:17.789Z,16.79
2023-07-04T01:46:45.955Z,16.80
2023-07-04T01:49:13.993Z,16.80
2023-07-04T01:51:43.268Z,16.75
2023-07-04T01:54:19.715Z,16.72
2023-07-04T01:56:53.984Z,16.67
2023-07-04T01:59:23.029Z,16.67
2023-07-04T02:01:50.994Z,16.62
2023-07-04T02:04:18.884Z,16.59
2023-07-04T02:06:46.542Z,16.49
2023-07-04T02:09:14.543Z,16.42
2023-07-04T02:11:42.325Z,16.39
2023-07-04T02:14:10.788Z,16.37
2023-07-04T02:16:38.623Z,16.39
2023-07-04T02:19:06.501Z,16.34
2023-07-04T02:21:36.095Z,16.30
2023-07-04T02:24:04.548Z,16.29
2023-07-04T02:26:33.712Z,16.24
2023-07-04T02:29:01.470Z,16.21
2023-07-04T02:31:30.223Z,16.20
2023-07-04T02:33:57.969Z,16.23
2023-07-04T02:36:25.823Z,16.21
2023-07-04T02:38:53.671Z,16.20
2023-07-04T02:41:21.837Z,16.18
2023-07-04T02:43:53.178Z,16.14
2023-07-04T02:46:21.567Z,16.08
2023-07-04T02:48:53.583Z,16.05
2023-07-04T02:51:21.316Z,16.04
2023-07-04T02:53:49.295Z,16.01
2023-07-04T02:56:17.175Z,15.95
2023-07-04T02:58:44.895Z,15.92
2023-07-04T03:01:12.700Z,15.92
2023-07-04T03:03:41.861Z,15.89
2023-07-04T03:06:10.674Z,15.90
2023-07-04T03:08:38.555Z,15.89
2023-07-04T03:11:06.553Z,15.81
2023-07-04T03:13:35.933Z,15.82
2023-07-04T03:16:05.348Z,15.78
2023-07-04T03:18:35.192Z,15.79
2023-07-04T03:21:03.557Z,15.76
2023-07-04T03:23:31.415Z,15.71
2023-07-04T03:25:59.594Z,15.66
2023-07-04T03:28:27.398Z,15.63
2023-07-04T03:30:56.837Z,15.62
2023-07-04T03:33:26.545Z,15.61
2023-07-04T03:35:59.678Z,15.56
2023-07-04T03:38:30.527Z,15.53
2023-07-04T03:41:00.144Z,15.51
2023-07-04T03:43:28.230Z,15.45
2023-07-04T03:45:57.472Z,15.44
2023-07-04T03:48:25.390Z,15.39
2023-07-04T03:50:53.399Z,15.36
2023-07-04T03:53:21.631Z,15.35
2023-07-04T03:55:51.119Z,15.29
2023-07-04T03:58:19.397Z,15.26
2023-07-04T04:00:52.488Z,15.28
2023-07-04T04:03:20.579Z,15.26
2023-07-04T04:05:48.493Z,15.26
2023-07-04T04:08:16.114Z,15.19
2023-07-04T04:10:44.217Z,15.20
2023-07-04T04:13:12.192Z,15.21
2023-07-04T04:15:39.867Z,15.23
2023-07-04T04:18:07.756Z,15.25
2023-07-04T04:20:35.810Z,15.27
2023-07-04T04:23:03.489Z,15.31
2023-07-04T04:25:38.981Z,15.31
2023-07-04T04:28:07.858Z,15.36
2023-07-04T04:30:36.429Z,15.38
2023-07-04T04:33:04.929Z,15.40
2023-07-04T04:35:32.858Z,15.42
2023-07-04T04:38:01.073Z,15.47
2023-07-04T04:40:30.355Z,15.49
2023-07-04T04:42:58.373Z,15.48
2023-07-04T04:45:26.345Z,15.45
2023-07-04T04:47:54.471Z,15.49
2023-07-04T04:50:24.868Z,15.47
2023-07-04T04:52:53.346Z,15.52
2023-07-04T04:55:21.218Z,15.52
2023-07-04T04:57:49.153Z,15.58
2023-07-04T05:00:18.113Z,15.64
2023-07-04T05:02:48.792Z,15.66
2023-07-04T05:05:17.439Z,15.64
2023-07-04T05:07:45.230Z,15.70
2023-07-04T05:10:13.105Z,15.72
2023-07-04T05:12:40.906Z,15.76
2023-07-04T05:15:09.452Z,15.79
2023-07-04T05:17:37.178Z,15.85
2023-07-04T05:20:06.600Z,15.84
2023-07-04T05:22:34.882Z,15.90
2023-07-04T05:25:02.511Z,15.96
2023-07-04T05:27:30.263Z,15.98
2023-07-04T05:29:58.034Z,15.97
2023-07-04T05:32:25.790Z,16.03
2023-07-04T05:34:53.671Z,16.08
2023-07-04T05:37:21.663Z,16.19
2023-07-04T05:39:51.131Z,16.24
2023-07-04T05:42:18.811Z,16.23
2023-07-04T05:44:46.498Z,16.30
2023-07-04T05:47:14.217Z,16.33
2023-07-04T05:49:42.006Z,16.36
2023-07-04T05:52:09.698Z,16.43
2023-07-04T05:54:37.336Z,16.55
2023-07-04T05:57:05.593Z,16.56
2023-07-04T05:59:33.327Z,16.68
2023-07-04T06:02:01.059Z,16.83
2023-07-04T06:04:29.023Z,17.02
2023-07-04T06:06:56.891Z,17.21
2023-07-04T06:09:24.592Z,17.19
2023-07-04T06:11:52.313Z,17.14
2023-07-04T06:14:28.012Z,17.20
2023-07-04T06:17:00.420Z,16.97
2023-07-04T06:19:28.107Z,16.74
2023-07-04T06:21:56.924Z,16.82
2023-07-04T06:24:26.744Z,16.81
2023-07-04T06:26:54.453Z,16.83
2023-07-04T06:29:22.093Z,16.87
2023-07-04T06:31:50.457Z,16.91
2023-07-04T06:34:18.202Z,16.88
2023-07-04T06:36:52.054Z,16.97
2023-07-04T06:39:19.899Z,17.09
2023-07-04T06:41:47.715Z,17.17
2023-07-04T06:44:15.385Z,17.27
2023-07-04T06:46:45.475Z,17.30
2023-07-04T06:49:13.513Z,17.24
2023-07-04T06:51:41.172Z,17.27
2023-07-04T06:54:08.926Z,17.37
2023-07-04T06:56:39.143Z,17.46
2023-07-04T06:59:07.840Z,17.56
2023-07-04T07:01:35.962Z,17.91
2023-07-04T07:04:05.133Z,18.21
2023-07-04T07:06:33.226Z,18.29
2023-07-04T07:09:02.162Z,18.27
2023-07-04T07:11:29.939Z,18.07
2023-07-04T07:13:57.781Z,17.87
2023-07-04T07:16:27.181Z,18.02
2023-07-04T07:18:56.597Z,18.17
2023-07-04T07:21:27.183Z,18.11
2023-07-04T07:23:57.189Z,18.16
2023-07-04T07:26:28.908Z,18.24
2023-07-04T07:28:57.480Z,18.39
2023-07-04T07:31:33.526Z,18.52
2023-07-04T07:34:06.369Z,18.66
2023-07-04T07:36:40.750Z,18.54
2023-07-04T07:39:12.505Z,18.74
2023-07-04T07:41:47.842Z,18.74
2023-07-04T07:44:18.095Z,18.44
2023-07-04T07:46:46.384Z,18.44
2023-07-04T07:49:14.145Z,18.70
2023-07-04T07:51:42.887Z,18.92
2023-07-04T07:54:11.781Z,19.08
2023-07-04T07:56:45.514Z,19.36
2023-07-04T07:59:14.547Z,19.63
2023-07-04T08:01:42.319Z,19.89
2023-07-04T08:04:11.629Z,19.97
2023-07-04T08:06:45.179Z,20.07
2023-07-04T08:09:16.954Z,20.26
2023-07-04T08:11:52.553Z,20.35
2023-07-04T08:14:20.844Z,20.51
2023-07-04T08:16:52.348Z,20.64
2023-07-04T08:19:26.776Z,20.56
2023-07-04T08:21:56.040Z,20.51
2023-07-04T08:24:24.116Z,20.46
2023-07-04T08:26:56.065Z,20.48
2023-07-04T08:29:24.174Z,20.57
2023-07-04T08:31:52.063Z,20.73
2023-07-04T08:34:20.055Z,20.54
2023-07-04T08:36:48.554Z,20.39
2023-07-04T08:39:16.328Z,20.32
2023-07-04T08:42:00.304Z,20.55
2023-07-04T08:44:57.850Z,20.74
2023-07-04T08:47:30.370Z,20.95
2023-07-04T08:50:24.510Z,21.18
2023-07-04T08:53:11.863Z,21.17
2023-07-04T08:55:56.947Z,21.32
2023-07-04T08:58:30.753Z,21.50
2023-07-04T09:01:01.797Z,21.37
2023-07-04T09:03:51.080Z,21.41
2023-07-04T09:06:41.568Z,21.31
2023-07-04T09:09:45.567Z,21.32
2023-07-04T09:12:13.570Z,21.43
2023-07-04T09:14:54.128Z,21.01
2023-07-04T09:17:34.933Z,21.14
2023-07-04T09:20:06.212Z,21.45
2023-07-04T09:22:35.878Z,21.69
2023-07-04T09:25:05.975Z,21.78
2023-07-04T09:27:34.942Z,21.92
2023-07-04T09:30:05.030Z,21.91
2023-07-04T09:32:32.769Z,21.99
2023-07-04T09:35:05.671Z,22.05
2023-07-04T09:37:57.813Z,22.02
2023-07-04T09:40:50.549Z,22.03
2023-07-04T09:43:33.534Z,21.95
2023-07-04T09:46:22.535Z,22.19
2023-07-04T09:48:51.526Z,22.23
2023-07-04T09:51:26.007Z,22.24
2023-07-04T09:54:17.901Z,22.27
2023-07-04T09:56:46.377Z,22.02
2023-07-04T09:59:20.665Z,21.90
2023-07-04T10:01:54.758Z,22.20
2023-07-04T10:04:37.449Z,22.43
2023-07-04T10:07:18.170Z,22.61
2023-07-04T10:10:02.591Z,22.91
2023-07-04T10:12:34.410Z,22.91
2023-07-04T10:15:02.343Z,22.74
2023-07-04T10:17:30.019Z,22.62
2023-07-04T10:20:05.578Z,22.48
2023-07-04T10:22:36.061Z,22.54
2023-07-04T10:25:11.031Z,22.65
2023-07-04T10:27:42.263Z,22.68
2023-07-04T10:30:33.678Z,22.66
2023-07-04T10:33:15.086Z,22.43
2023-07-04T10:35:47.056Z,22.16
2023-07-04T10:38:44.453Z,22.01
2023-07-04T10:41:44.495Z,21.98
2023-07-04T10:44:21.108Z,22.12
2023-07-04T10:46:56.928Z,22.30
2023-07-04T10:49:29.127Z,22.60
2023-07-04T10:52:08.225Z,22.71
2023-07-04T10:54:36.345Z,22.70
2023-07-04T10:57:23.456Z,22.51
2023-07-04T10:59:57.038Z,22.45
2023-07-04T11:03:07.487Z,22.31
2023-07-04T11:05:43.139Z,22.40
2023-07-04T11:08:18.491Z,22.68
2023-07-04T11:10:51.744Z,22.96
2023-07-04T11:13:22.333Z,23.21
2023-07-04T11:15:57.562Z,23.19
2023-07-04T11:18:31.695Z,23.09
2023-07-04T11:21:17.919Z,23.23
2023-07-04T11:23:53.273Z,23.26
2023-07-04T11:26:47.461Z,22.97
2023-07-04T11:29:23.098Z,23.08
2023-07-04T11:32:06.199Z,23.15
2023-07-04T11:34:51.855Z,23.19
2023-07-04T11:37:33.111Z,23.08
2023-07-04T11:40:19.134Z,22.76
2023-07-04T11:42:49.498Z,22.81
2023-07-04T11:45:27.034Z,22.85
2023-07-04T11:48:02.115Z,22.93
2023-07-04T11:50:41.239Z,23.26
2023-07-04T11:53:30.457Z,23.66
2023-07-04T11:56:39.127Z,23.61
2023-07-04T11:59:15.597Z,23.75
2023-07-04T12:02:09.109Z,24.00
2023-07-04T12:04:39.881Z,24.05
2023-07-04T12:07:22.974Z,23.54
2023-07-04T12:10:29.072Z,23.50
2023-07-04T12:13:08.337Z,23.55
2023-07-04T12:15:38.700Z,23.75
2023-07-04T12:18:25.129Z,23.89
2023-07-04T12:20:53.562Z,24.00
2023-07-04T12:23:22.858Z,24.02
2023-07-04T12:25:59.166Z,23.97
2023-07-04T12:28:30.272Z,23.76
2023-07-04T12:31:41.236Z,23.75
2023-07-04T12:33:49.349Z,23.95
2023-07-04T12:36:20.618Z,24.06
2023-07-04T12:38:55.397Z,24.31
2023-07-04T12:41:31.296Z,24.39
2023-07-04T12:51:46.558Z,24.18
2023-07-04T12:54:16.478Z,24.34
2023-07-04T12:56:47.931Z,24.56
2023-07-04T12:59:37.593Z,24.51
2023-07-04T13:02:24.076Z,24.52
2023-07-04T13:04:57.913Z,24.58
2023-07-04T13:07:26.440Z,24.63
2023-07-04T13:09:59.331Z,24.59
2023-07-04T13:12:34.912Z,24.68
2023-07-04T13:15:19.683Z,24.72
2023-07-04T13:18:02.023Z,24.78
2023-07-04T13:20:33.679Z,24.72
2023-07-04T13:25:55.407Z,24.59
2023-07-04T13:34:23.031Z,24.51
2023-07-04T13:36:54.561Z,24.38
2023-07-04T13:39:50.954Z,24.29
2023-07-04T13:42:17.672Z,24.45
2023-07-04T13:47:17.400Z,24.41
2023-07-04T13:49:45.104Z,24.39
2023-07-04T13:52:12.905Z,24.41
2023-07-04T13:54:40.566Z,24.35
2023-07-04T13:57:08.441Z,24.29
2023-07-04T13:59:36.088Z,24.14
2023-07-04T14:07:05.750Z,23.92
2023-07-04T14:09:33.546Z,23.83
2023-07-04T14:12:02.001Z,23.76
2023-07-04T14:22:02.343Z,23.32
2023-07-04T14:24:30.114Z,23.13
2023-07-04T14:26:57.900Z,23.04
2023-07-04T14:29:25.584Z,22.80
2023-07-04T14:31:53.397Z,22.64
2023-07-04T14:34:22.430Z,22.45
2023-07-04T14:36:50.085Z,22.26
2023-07-04T14:39:17.708Z,22.03
2023-07-04T14:42:29.877Z,22.04
2023-07-04T14:44:34.775Z,21.90
2023-07-04T14:47:03.538Z,21.94
2023-07-04T14:49:31.264Z,22.03
2023-07-04T14:51:58.996Z,22.12
2023-07-04T14:54:26.622Z,22.26
2023-07-04T14:56:54.367Z,22.50
2023-07-04T14:59:22.016Z,22.71
2023-07-04T15:01:49.723Z,22.87
2023-07-04T15:04:17.481Z,23.05
2023-07-04T15:06:45.147Z,23.05
2023-07-04T15:09:12.769Z,22.97
2023-07-04T15:11:40.531Z,22.96
2023-07-04T15:14:08.410Z,22.84
2023-07-04T15:16:36.323Z,22.71
2023-07-04T15:19:04.523Z,22.65
2023-07-04T15:21:32.151Z,22.52
2023-07-04T15:23:59.888Z,22.46
2023-07-04T15:26:28.667Z,22.45
2023-07-04T15:28:57.877Z,22.30
2023-07-04T15:31:26.917Z,22.21
2023-07-04T15:33:58.636Z,22.12
2023-07-04T15:36:27.537Z,22.05
2023-07-04T15:38:55.671Z,21.99
2023-07-04T15:41:23.673Z,21.90
2023-07-04T15:43:51.347Z,21.95
2023-07-04T15:46:20.411Z,21.95
2023-07-04T15:48:48.197Z,21.97
2023-07-04T15:51:19.963Z,21.91
2023-07-04T15:53:49.386Z,21.97
2023-07-04T15:56:20.793Z,21.89
2023-07-04T15:58:48.532Z,21.89
2023-07-04T16:01:16.403Z,21.76
2023-07-04T16:03:44.245Z,21.77
2023-07-04T16:06:12.636Z,21.68
2023-07-04T16:08:42.376Z,21.57
2023-07-04T16:11:14.298Z,21.39
2023-07-04T16:13:43.308Z,21.42
2023-07-04T16:16:11.657Z,21.40
2023-07-04T16:18:39.963Z,21.44
2023-07-04T16:21:07.825Z,21.35
2023-07-04T16:23:35.937Z,21.36
2023-07-04T16:26:05.030Z,21.29
2023-07-04T16:28:32.729Z,21.21
2023-07-04T16:31:06.303Z,21.23
2023-07-04T16:33:35.363Z,21.26
2023-07-04T16:36:07.232Z,21.33
2023-07-04T16:38:35.587Z,21.35
2023-07-04T17:22:14.194Z,21.00
2023-07-04T17:24:42.088Z,21.07
2023-07-04T17:27:09.716Z,21.40
2023-07-04T17:29:37.493Z,21.38
2023-07-04T17:32:07.357Z,21.52
2023-07-04T17:34:35.301Z,21.62
2023-07-04T17:37:03.905Z,21.65
2023-07-04T17:39:32.410Z,21.52
2023-07-04T17:42:00.024Z,21.47
2023-07-04T17:44:31.683Z,21.37
2023-07-04T17:47:00.251Z,21.33
2023-07-04T17:49:28.690Z,21.35
2023-07-04T17:51:58.112Z,21.38
2023-07-04T17:54:25.882Z,21.40
2023-07-04T17:56:54.526Z,21.46
2023-07-04T17:59:22.250Z,21.48
2023-07-04T18:01:49.925Z,21.24
2023-07-04T18:04:20.134Z,21.16
2023-07-04T18:06:47.904Z,21.16
2023-07-04T18:09:15.605Z,21.26
2023-07-04T18:11:43.566Z,21.35
2023-07-04T18:14:11.412Z,21.41
2023-07-04T18:16:40.492Z,21.43
2023-07-04T18:19:08.658Z,21.23
2023-07-04T18:21:36.392Z,21.12
2023-07-04T18:24:04.584Z,21.19
2023-07-04T18:26:33.657Z,21.17
2023-07-04T18:29:06.540Z,21.16
2023-07-04T18:31:34.532Z,21.15
2023-07-04T18:34:03.509Z,21.20
2023-07-04T18:36:35.242Z,21.22
2023-07-04T18:39:04.108Z,21.16
2023-07-04T18:41:36.548Z,21.06
2023-07-04T18:44:06.608Z,21.11
2023-07-04T18:46:36.558Z,21.11
2023-07-04T18:49:05.428Z,21.11
2023-07-04T18:51:36.797Z,21.08
2023-07-04T18:54:06.668Z,21.05
2023-07-04T18:56:41.504Z,21.00
2023-07-04T18:59:10.783Z,20.77
2023-07-04T19:01:38.888Z,20.80
2023-07-04T19:04:06.714Z,20.80
2023-07-04T19:06:36.587Z,20.82
2023-07-04T19:09:05.617Z,20.81
2023-07-04T19:11:40.578Z,20.80
2023-07-04T19:14:18.170Z,20.85
2023-07-04T19:16:52.905Z,20.88
2023-07-04T19:19:34.068Z,20.69
2023-07-04T19:22:08.395Z,20.63
2023-07-04T19:24:38.921Z,20.50
2023-07-04T19:27:11.061Z,20.44
2023-07-04T19:29:38.934Z,20.36
2023-07-04T19:32:07.634Z,20.28
2023-07-04T19:34:36.130Z,20.33
2023-07-04T19:37:04.589Z,20.30
2023-07-04T19:39:34.185Z,20.31
2023-07-04T19:42:03.248Z,20.23
2023-07-04T19:44:30.992Z,20.07
2023-07-04T19:46:58.707Z,20.05
2023-07-04T19:49:26.327Z,20.01
2023-07-04T19:51:54.029Z,20.03
2023-07-04T19:54:21.739Z,19.98
2023-07-04T19:56:56.807Z,19.81
2023-07-04T19:59:26.085Z,19.85
2023-07-04T20:01:53.916Z,19.86
2023-07-04T20:04:22.012Z,19.82
2023-07-04T20:06:49.699Z,19.80
2023-07-04T20:09:17.792Z,19.78
2023-07-04T20:11:45.503Z,19.74
2023-07-04T20:14:13.164Z,19.71
2023-07-04T20:16:40.949Z,19.75
2023-07-04T20:19:09.373Z,19.76
2023-07-04T20:21:37.738Z,19.79
2023-07-04T20:24:06.502Z,19.79
2023-07-04T20:26:34.556Z,19.77
2023-07-04T20:29:02.296Z,19.78
2023-07-04T20:31:30.240Z,19.86
2023-07-04T20:33:59.098Z,19.83
2023-07-04T20:36:26.940Z,19.84
2023-07-04T20:38:54.881Z,19.91
2023-07-04T20:41:23.148Z,19.89
2023-07-04T20:43:50.855Z,19.95
2023-07-04T20:46:18.566Z,19.93
2023-07-04T20:48:46.788Z,19.98
2023-07-04T20:51:14.496Z,20.01
2023-07-04T20:53:42.442Z,20.01
2023-07-04T20:56:11.262Z,19.92
2023-07-04T20:58:39.262Z,19.92
2023-07-04T21:01:07.891Z,19.96
2023-07-04T21:03:38.163Z,19.93
2023-07-04T21:06:07.088Z,19.94
2023-07-04T21:08:35.502Z,19.64
2023-07-04T21:11:04.022Z,19.62
2023-07-04T21:13:34.508Z,19.68
2023-07-04T21:16:14.709Z,19.74
2023-07-04T21:18:43.369Z,19.75
2023-07-04T21:21:12.692Z,19.70
2023-07-04T21:23:41.070Z,19.57
2023-07-04T21:26:10.276Z,19.65
2023-07-04T21:28:38.433Z,19.71
2023-07-04T21:31:09.504Z,19.71
2023-07-04T21:33:39.913Z,19.70
2023-07-04T21:36:08.523Z,19.64
2023-07-04T21:38:38.694Z,19.57
2023-07-04T21:41:09.623Z,19.57
2023-07-04T21:43:37.547Z,19.58
2023-07-04T21:46:10.641Z,19.52
2023-07-04T21:48:39.715Z,19.54
2023-07-04T21:51:09.186Z,19.59
2023-07-04T21:53:36.993Z,19.66
2023-07-04T21:56:05.096Z,19.56
2023-07-04T21:58:33.840Z,19.12
2023-07-04T22:01:06.400Z,18.52
2023-07-04T22:03:38.768Z,18.81
2023-07-04T22:06:09.295Z,18.60
2023-07-04T22:08:41.601Z,18.54
2023-07-04T22:11:12.865Z,18.54
2023-07-04T22:13:44.906Z,18.50
2023-07-04T22:16:16.619Z,18.38
2023-07-04T22:18:46.369Z,18.45
2023-07-04T22:21:14.558Z,18.55
2023-07-04T22:23:42.567Z,18.41
2023-07-04T22:26:12.656Z,18.48
2023-07-04T22:28:41.045Z,18.35
2023-07-04T22:31:12.940Z,18.37
2023-07-04T22:33:51.228Z,18.38
2023-07-04T22:36:19.239Z,18.36
2023-07-04T22:38:46.960Z,18.11
2023-07-04T22:41:14.657Z,18.05
2023-07-04T22:43:42.351Z,17.85
2023-07-04T22:46:10.776Z,17.82
2023-07-04T22:48:38.527Z,17.75
2023-07-04T22:51:06.183Z,17.57
2023-07-04T22:53:33.848Z,17.56
2023-07-04T22:56:07.049Z,17.55
2023-07-04T22:58:36.876Z,17.49
2023-07-04T23:01:14.241Z,17.48
2023-07-04T23:03:42.821Z,17.52
2023-07-04T23:06:12.314Z,17.55
2023-07-04T23:08:42.172Z,17.50
2023-07-04T23:11:10.051Z,17.45
2023-07-04T23:13:38.414Z,17.42
2023-07-04T23:16:10.410Z,17.39
2023-07-04T23:18:40.050Z,17.28
2023-07-04T23:21:07.884Z,17.24
2023-07-04T23:23:36.006Z,17.14
2023-07-04T23:26:18.639Z,16.69
2023-07-04T23:28:46.575Z,16.29
2023-07-04T23:31:15.208Z,16.03
2023-07-04T23:33:45.904Z,15.82
2023-07-04T23:36:16.150Z,15.76
2023-07-04T23:38:43.844Z,15.69
2023-07-04T23:41:12.190Z,15.71
2023-07-04T23:43:40.123Z,15.69
2023-07-04T23:46:07.860Z,15.64
2023-07-04T23:48:35.731Z,15.56
2023-07-04T23:51:03.437Z,15.39
2023-07-04T23:53:31.529Z,15.38
2023-07-04T23:55:59.196Z,15.31
2023-07-04T23:58:27.481Z,15.29
